Hanseatic Scout — V2BM2 — position and weather

sailwx.info

Track history (hours):
 
Tides and Currents Weather Stations Pressure Air Temp Water Temp Dewpoint Dewpoint Depression Visibility Wind Speed Wind Dir Waves Ship Positions

Hanseatic Scout

Last reported at 2014-Oct-31 06:33 UTC. Time now 2014-Oct-31 08:29 UTC.
Position N 54°34' E 010°51'.

Length 89 m; draft 5.9 m.

Type: Ship (hazmat cat C). MMSI: 304867000.

Date/timePositionNaut miles runAvg speedWind from/ knotsBaromVisibWave heightAir tempDewpointWater temp
2014-Oct-31 06:33N 54°34' E 010°51'7 7.0
2014-Oct-31 05:33N 54°34' E 010°39'7 7.0
2014-Oct-31 04:33N 54°32' E 010°27'8 8.2
2014-Oct-31 03:33N 54°27' E 010°15'7 6.6
2014-Oct-31 02:33N 54°22' E 010°09'2 2.5
2014-Oct-31 01:33N 54°22' E 010°04'7 6.9
2014-Oct-31 00:33N 54°21' E 009°53'5 5.0
2014-Oct-30 23:33N 54°20' E 009°44'8 7.8
2014-Oct-30 22:33N 54°14' E 009°36'9 8.5
2014-Oct-30 21:33N 54°10' E 009°24'8 8.1
2014-Oct-30 20:33N 54°02' E 009°18'8 8.1
2014-Oct-30 19:33N 53°55' E 009°11'4 3.7
2014-Oct-30 18:33N 53°53' E 009°06'10 9.8
2014-Oct-30 17:33N 53°50' E 008°50'1010.5
2014-Oct-30 16:33N 53°57' E 008°37'1110.8
2014-Oct-30 15:33N 53°59' E 008°19'1110.7
2014-Oct-30 14:33N 53°58' E 008°01'1110.9
2014-Oct-30 13:33N 53°56' E 007°42'1111.2
2014-Oct-30 12:33N 53°53' E 007°24'1111.2
2014-Oct-30 11:33N 53°51' E 007°06'1111.1
2014-Oct-30 10:32N 53°48' E 006°47'1310.5
2014-Oct-30 09:18N 53°45' E 006°26'810.1
2014-Oct-30 08:32N 53°43' E 006°13'9 9.6
2014-Oct-30 07:33N 53°40' E 005°58'9 9.2
2014-Oct-30 06:33N 53°37' E 005°43'9 8.9
2014-Oct-30 05:33N 53°34' E 005°29'9 8.6
2014-Oct-30 04:33N 53°31' E 005°15'9 8.7
2014-Oct-30 03:33N 53°28' E 005°02'9 8.9
2014-Oct-30 02:33N 53°24' E 004°48'9 8.9
2014-Oct-30 01:33N 53°18' E 004°39'10 9.8
2014-Oct-30 00:32N 53°09' E 004°31'10 9.8
2014-Oct-29 23:33N 53°00' E 004°23'1010.2
2014-Oct-29 22:33N 52°52' E 004°15'10 9.9
2014-Oct-29 21:33N 52°44' E 004°05'1010.3
2014-Oct-29 20:33N 52°36' E 003°53'7610.7
2014-Oct-29 13:25N 51°40' E 002°30'8 9.2
2014-Oct-29 12:33N 51°34' E 002°21'9 8.5
2014-Oct-29 11:29N 51°26' E 002°14'8 8.5
2014-Oct-29 10:32N 51°19' E 002°08'8 8.2
2014-Oct-29 09:33N 51°13' E 001°60'9 8.9
2014-Oct-29 08:34N 51°08' E 001°48'9 8.9
2014-Oct-29 07:33N 51°02' E 001°38'10 9.8
2014-Oct-29 06:33N 50°54' E 001°27'379 9.9
2014-Oct-27 16:16N 47°28' W 006°39'810.7
2014-Oct-27 15:28N 47°20' W 006°45'8210.4
2014-Oct-27 07:33N 46°07' W 007°39'1110.9
2014-Oct-27 06:33N 45°57' W 007°47'  
2014-Oct-23 21:31N 38°41' W 009°41'7 7.7
2014-Oct-23 20:33N 38°38' W 009°33'8 8.4
2014-Oct-23 19:33N 38°38' W 009°22'1010.0
2014-Oct-23 18:34N 38°42' W 009°10'4 3.9
2014-Oct-23 17:34N 38°44' W 009°06'0 0.0
2014-Oct-23 16:33N 38°44' W 009°06'0 0.0
2014-Oct-23 15:33N 38°44' W 009°06'0 0.0
2014-Oct-23 14:33N 38°44' W 009°06'0 0.0
2014-Oct-23 13:33N 38°44' W 009°06'0 0.0
2014-Oct-23 12:33N 38°44' W 009°06'0 0.0
2014-Oct-23 11:33N 38°44' W 009°06'0 0.0
2014-Oct-23 10:30N 38°44' W 009°06'0 0.0
2014-Oct-23 09:33N 38°44' W 009°06'0 0.0
2014-Oct-23 08:30N 38°44' W 009°06'0 0.0
2014-Oct-23 07:30N 38°44' W 009°06'0 0.0
2014-Oct-23 06:32N 38°44' W 009°06'0 0.0
2014-Oct-23 05:32N 38°44' W 009°06'0 0.0
2014-Oct-23 04:32N 38°44' W 009°06'0 0.0
2014-Oct-23 03:26N 38°44' W 009°06'0 0.0
2014-Oct-23 02:32N 38°44' W 009°06'0 0.0
2014-Oct-23 01:29N 38°44' W 009°06'0 0.0
2014-Oct-23 00:33N 38°44' W 009°06'0 0.0
2014-Oct-22 23:30N 38°44' W 009°06'0 0.0
2014-Oct-22 22:33N 38°44' W 009°06'0 0.0
2014-Oct-22 21:33N 38°44' W 009°06'0 0.0
2014-Oct-22 20:33N 38°44' W 009°06'0 0.0
2014-Oct-22 19:33N 38°44' W 009°06'0 0.0
2014-Oct-22 18:33N 38°44' W 009°06'0 0.0
2014-Oct-22 17:33N 38°44' W 009°06'0 0.0
2014-Oct-22 15:33N 38°44' W 009°06'0 0.0
2014-Oct-22 14:33N 38°44' W 009°06'0 0.0
2014-Oct-22 13:33N 38°44' W 009°06'0 0.0
2014-Oct-22 12:33N 38°44' W 009°06'0 0.0
2014-Oct-22 11:30N 38°44' W 009°06'0 0.0
2014-Oct-22 10:33N 38°44' W 009°06'1 1.0
2014-Oct-22 09:33N 38°43' W 009°07'9 8.9
2014-Oct-22 08:33N 38°41' W 009°18'9 8.9
2014-Oct-22 07:34N 38°37' W 009°28'1010.1
2014-Oct-22 06:33N 38°36' W 009°41'1110.5
2014-Oct-22 05:32N 38°36' W 009°54'8 8.4
2014-Oct-22 04:33N 38°38' W 010°04'9 9.4
2014-Oct-22 03:33N 38°48' W 010°06'10 9.6
2014-Oct-22 02:33N 38°57' W 010°06'10 9.8
2014-Oct-22 01:33N 39°07' W 010°06'10 9.7
2014-Oct-22 00:33N 39°17' W 010°06'10 9.8
2014-Oct-21 23:33N 39°27' W 010°06'10 9.5
2014-Oct-21 22:33N 39°36' W 010°05'10 9.7
2014-Oct-21 21:33N 39°46' W 010°05'10 9.7
2014-Oct-21 20:33N 39°55' W 010°06'1110.0
2014-Oct-21 19:28N 40°06' W 010°06'  
Track history (hours):
 
Tides and Currents Weather Stations Pressure Air Temp Water Temp Dewpoint Dewpoint Depression Visibility Wind Speed Wind Dir Waves Ship Positions

Hanseatic Scout

Last reported at 2014-Oct-31 06:33 UTC. Time now 2014-Oct-31 08:29 UTC.
Position N 54°34' E 010°51'.

Length 89 m; draft 5.9 m.

Type: Ship (hazmat cat C). MMSI: 304867000.

Date/timePositionNaut miles runAvg speedWind from/ knotsBaromVisibWave heightAir tempDewpointWater temp
2014-Oct-31 06:33N 54°34' E 010°51'7 7.0
2014-Oct-31 05:33N 54°34' E 010°39'7 7.0
2014-Oct-31 04:33N 54°32' E 010°27'8 8.2
2014-Oct-31 03:33N 54°27' E 010°15'7 6.6
2014-Oct-31 02:33N 54°22' E 010°09'2 2.5
2014-Oct-31 01:33N 54°22' E 010°04'7 6.9
2014-Oct-31 00:33N 54°21' E 009°53'5 5.0
2014-Oct-30 23:33N 54°20' E 009°44'8 7.8
2014-Oct-30 22:33N 54°14' E 009°36'9 8.5
2014-Oct-30 21:33N 54°10' E 009°24'8 8.1
2014-Oct-30 20:33N 54°02' E 009°18'8 8.1
2014-Oct-30 19:33N 53°55' E 009°11'4 3.7
2014-Oct-30 18:33N 53°53' E 009°06'10 9.8
2014-Oct-30 17:33N 53°50' E 008°50'1010.5
2014-Oct-30 16:33N 53°57' E 008°37'1110.8
2014-Oct-30 15:33N 53°59' E 008°19'1110.7
2014-Oct-30 14:33N 53°58' E 008°01'1110.9
2014-Oct-30 13:33N 53°56' E 007°42'1111.2
2014-Oct-30 12:33N 53°53' E 007°24'1111.2
2014-Oct-30 11:33N 53°51' E 007°06'1111.1
2014-Oct-30 10:32N 53°48' E 006°47'1310.5
2014-Oct-30 09:18N 53°45' E 006°26'810.1
2014-Oct-30 08:32N 53°43' E 006°13'9 9.6
2014-Oct-30 07:33N 53°40' E 005°58'9 9.2
2014-Oct-30 06:33N 53°37' E 005°43'9 8.9
2014-Oct-30 05:33N 53°34' E 005°29'9 8.6
2014-Oct-30 04:33N 53°31' E 005°15'9 8.7
2014-Oct-30 03:33N 53°28' E 005°02'9 8.9
2014-Oct-30 02:33N 53°24' E 004°48'9 8.9
2014-Oct-30 01:33N 53°18' E 004°39'10 9.8
2014-Oct-30 00:32N 53°09' E 004°31'10 9.8
2014-Oct-29 23:33N 53°00' E 004°23'1010.2
2014-Oct-29 22:33N 52°52' E 004°15'10 9.9
2014-Oct-29 21:33N 52°44' E 004°05'1010.3
2014-Oct-29 20:33N 52°36' E 003°53'7610.7
2014-Oct-29 13:25N 51°40' E 002°30'8 9.2
2014-Oct-29 12:33N 51°34' E 002°21'9 8.5
2014-Oct-29 11:29N 51°26' E 002°14'8 8.5
2014-Oct-29 10:32N 51°19' E 002°08'8 8.2
2014-Oct-29 09:33N 51°13' E 001°60'9 8.9
2014-Oct-29 08:34N 51°08' E 001°48'9 8.9
2014-Oct-29 07:33N 51°02' E 001°38'10 9.8
2014-Oct-29 06:33N 50°54' E 001°27'379 9.9
2014-Oct-27 16:16N 47°28' W 006°39'810.7
2014-Oct-27 15:28N 47°20' W 006°45'8210.4
2014-Oct-27 07:33N 46°07' W 007°39'1110.9
2014-Oct-27 06:33N 45°57' W 007°47'  
2014-Oct-23 21:31N 38°41' W 009°41'7 7.7
2014-Oct-23 20:33N 38°38' W 009°33'8 8.4
2014-Oct-23 19:33N 38°38' W 009°22'1010.0
2014-Oct-23 18:34N 38°42' W 009°10'4 3.9
2014-Oct-23 17:34N 38°44' W 009°06'0 0.0
2014-Oct-23 16:33N 38°44' W 009°06'0 0.0
2014-Oct-23 15:33N 38°44' W 009°06'0 0.0
2014-Oct-23 14:33N 38°44' W 009°06'0 0.0
2014-Oct-23 13:33N 38°44' W 009°06'0 0.0
2014-Oct-23 12:33N 38°44' W 009°06'0 0.0
2014-Oct-23 11:33N 38°44' W 009°06'0 0.0
2014-Oct-23 10:30N 38°44' W 009°06'0 0.0
2014-Oct-23 09:33N 38°44' W 009°06'0 0.0
2014-Oct-23 08:30N 38°44' W 009°06'0 0.0
2014-Oct-23 07:30N 38°44' W 009°06'0 0.0
2014-Oct-23 06:32N 38°44' W 009°06'0 0.0
2014-Oct-23 05:32N 38°44' W 009°06'0 0.0
2014-Oct-23 04:32N 38°44' W 009°06'0 0.0
2014-Oct-23 03:26N 38°44' W 009°06'0 0.0
2014-Oct-23 02:32N 38°44' W 009°06'0 0.0
2014-Oct-23 01:29N 38°44' W 009°06'0 0.0
2014-Oct-23 00:33N 38°44' W 009°06'0 0.0
2014-Oct-22 23:30N 38°44' W 009°06'0 0.0
2014-Oct-22 22:33N 38°44' W 009°06'0 0.0
2014-Oct-22 21:33N 38°44' W 009°06'0 0.0
2014-Oct-22 20:33N 38°44' W 009°06'0 0.0
2014-Oct-22 19:33N 38°44' W 009°06'0 0.0
2014-Oct-22 18:33N 38°44' W 009°06'0 0.0
2014-Oct-22 17:33N 38°44' W 009°06'0 0.0
2014-Oct-22 15:33N 38°44' W 009°06'0 0.0
2014-Oct-22 14:33N 38°44' W 009°06'0 0.0
2014-Oct-22 13:33N 38°44' W 009°06'0 0.0
2014-Oct-22 12:33N 38°44' W 009°06'0 0.0
2014-Oct-22 11:30N 38°44' W 009°06'0 0.0
2014-Oct-22 10:33N 38°44' W 009°06'1 1.0
2014-Oct-22 09:33N 38°43' W 009°07'9 8.9
2014-Oct-22 08:33N 38°41' W 009°18'9 8.9
2014-Oct-22 07:34N 38°37' W 009°28'1010.1
2014-Oct-22 06:33N 38°36' W 009°41'1110.5
2014-Oct-22 05:32N 38°36' W 009°54'8 8.4
2014-Oct-22 04:33N 38°38' W 010°04'9 9.4
2014-Oct-22 03:33N 38°48' W 010°06'10 9.6
2014-Oct-22 02:33N 38°57' W 010°06'10 9.8
2014-Oct-22 01:33N 39°07' W 010°06'10 9.7
2014-Oct-22 00:33N 39°17' W 010°06'10 9.8
2014-Oct-21 23:33N 39°27' W 010°06'10 9.5
2014-Oct-21 22:33N 39°36' W 010°05'10 9.7
2014-Oct-21 21:33N 39°46' W 010°05'10 9.7
2014-Oct-21 20:33N 39°55' W 010°06'1110.0
2014-Oct-21 19:28N 40°06' W 010°06'  

Dump ship's entire track history